createdAt,value
2018-09-03T00:00:13.708Z,95773.73
2018-09-03T00:02:48.036Z,95769.52
2018-09-03T00:05:22.866Z,95757.82
2018-09-03T00:07:57.599Z,95755.50
2018-09-03T00:10:31.963Z,95753.41
2018-09-03T00:13:07.017Z,95739.72
2018-09-03T00:15:41.841Z,95736.09
2018-09-03T00:18:16.603Z,95728.14
2018-09-03T00:20:51.471Z,95727.85
2018-09-03T00:23:26.131Z,95722.44
2018-09-03T00:26:00.415Z,95720.70
2018-09-03T00:28:34.859Z,95718.18
2018-09-03T00:31:14.919Z,95720.81
2018-09-03T00:33:54.540Z,95717.37
2018-09-03T00:36:34.968Z,95725.63
2018-09-03T00:39:15.129Z,95725.84
2018-09-03T00:41:55.103Z,95727.42
2018-09-03T00:44:34.943Z,95722.60
2018-09-03T00:47:11.410Z,95726.12
2018-09-03T00:49:46.160Z,95726.63
2018-09-03T00:52:21.235Z,95723.62
2018-09-03T00:54:55.775Z,95719.59
2018-09-03T00:57:30.104Z,95716.77
2018-09-03T01:00:04.732Z,95712.55
2018-09-03T01:02:39.602Z,95710.14
2018-09-03T01:05:14.176Z,95709.63
2018-09-03T01:07:48.668Z,95706.30
2018-09-03T01:10:23.471Z,95698.16
2018-09-03T01:12:58.309Z,95697.75
2018-09-03T01:15:32.615Z,95694.00
2018-09-03T01:18:07.347Z,95690.59
2018-09-03T01:20:42.068Z,95689.08
2018-09-03T01:23:16.511Z,95691.30
2018-09-03T01:25:50.911Z,95687.37
2018-09-03T01:28:25.304Z,95691.59
2018-09-03T01:30:59.712Z,95688.28
2018-09-03T01:33:34.464Z,95691.27
2018-09-03T01:36:08.975Z,95696.70
2018-09-03T01:38:43.727Z,95700.11
2018-09-03T01:41:19.359Z,95695.66
2018-09-03T01:43:53.787Z,95690.73
2018-09-03T01:46:28.296Z,95685.60
2018-09-03T01:49:02.850Z,95687.87
2018-09-03T01:51:37.632Z,95685.36
2018-09-03T01:54:12.112Z,95676.31
2018-09-03T01:56:46.576Z,95683.95
2018-09-03T01:59:21.040Z,95693.03
2018-09-03T02:01:55.529Z,95696.42
2018-09-03T02:04:29.959Z,95691.72
2018-09-03T02:07:04.475Z,95686.78
2018-09-03T02:09:39.183Z,95678.74
2018-09-03T02:12:15.327Z,95678.14
2018-09-03T02:14:49.792Z,95683.67
2018-09-03T02:17:24.324Z,95681.45
2018-09-03T02:19:59.745Z,95679.20
2018-09-03T02:22:34.075Z,95675.77
2018-09-03T02:25:09.201Z,95683.61
2018-09-03T02:27:43.691Z,95691.72
2018-09-03T02:30:19.067Z,95690.89
2018-09-03T02:32:54.016Z,95684.80
2018-09-03T02:35:29.254Z,95684.91
2018-09-03T02:38:04.046Z,95677.08
2018-09-03T02:40:38.633Z,95674.88
2018-09-03T02:43:13.176Z,95665.64
2018-09-03T02:45:47.699Z,95663.93
2018-09-03T02:48:22.256Z,95658.09
2018-09-03T02:50:56.709Z,95658.41
2018-09-03T02:53:31.367Z,95659.70
2018-09-03T02:56:06.823Z,95657.08
2018-09-03T02:58:41.596Z,95663.31
2018-09-03T03:01:16.915Z,95663.98
2018-09-03T03:03:51.879Z,95660.26
2018-09-03T03:06:26.311Z,95647.34
2018-09-03T03:09:01.007Z,95642.33
2018-09-03T03:11:35.683Z,95643.23
2018-09-03T03:14:10.315Z,95645.03
2018-09-03T03:16:45.251Z,95640.02
2018-09-03T03:19:20.967Z,95632.33
2018-09-03T03:21:55.486Z,95630.28
2018-09-03T03:24:29.895Z,95630.08
2018-09-03T03:27:04.722Z,95628.06
2018-09-03T03:29:39.053Z,95625.15
2018-09-03T03:32:14.123Z,95631.34
2018-09-03T03:34:49.246Z,95626.56
2018-09-03T03:37:23.939Z,95622.64
2018-09-03T03:39:59.200Z,95615.73
2018-09-03T03:42:34.221Z,95611.00
2018-09-03T03:45:09.503Z,95612.81
2018-09-03T03:47:44.467Z,95614.45
2018-09-03T03:50:19.420Z,95618.98
2018-09-03T03:52:53.807Z,95614.56
2018-09-03T03:55:28.678Z,95606.02
2018-09-03T03:58:03.503Z,95604.92
2018-09-03T04:00:38.074Z,95605.38
2018-09-03T04:03:12.460Z,95602.97
2018-09-03T04:05:46.803Z,95603.07
2018-09-03T04:08:21.491Z,95597.95
2018-09-03T04:10:56.110Z,95599.25
2018-09-03T04:13:30.529Z,95595.76
2018-09-03T04:16:05.513Z,95593.55
2018-09-03T04:18:40.671Z,95599.98
2018-09-03T04:21:15.011Z,95603.19
2018-09-03T04:23:50.150Z,95602.98
2018-09-03T04:26:24.896Z,95604.60
2018-09-03T04:28:59.680Z,95605.00
2018-09-03T04:31:34.144Z,95603.70
2018-09-03T04:34:09.072Z,95604.91
2018-09-03T04:36:43.855Z,95615.66
2018-09-03T04:39:18.252Z,95607.11
2018-09-03T04:41:53.204Z,95608.95
2018-09-03T04:44:27.602Z,95610.45
2018-09-03T04:47:02.532Z,95608.03
2018-09-03T04:49:37.371Z,95603.41
2018-09-03T04:52:12.161Z,95604.42
2018-09-03T04:54:46.824Z,95604.32
2018-09-03T04:57:21.412Z,95606.92
2018-09-03T04:59:55.915Z,95608.75
2018-09-03T05:02:30.426Z,95616.88
2018-09-03T05:05:04.854Z,95614.56
2018-09-03T05:07:39.888Z,95614.78
2018-09-03T05:10:14.762Z,95612.55
2018-09-03T05:12:50.207Z,95613.77
2018-09-03T05:15:24.989Z,95615.77
2018-09-03T05:17:59.778Z,95609.73
2018-09-03T05:20:34.419Z,95617.17
2018-09-03T05:23:09.298Z,95621.70
2018-09-03T05:25:45.235Z,95611.83
2018-09-03T05:28:20.036Z,95609.81
2018-09-03T05:30:55.038Z,95611.30
2018-09-03T05:33:29.588Z,95613.12
2018-09-03T05:36:05.061Z,95610.98
2018-09-03T05:38:39.388Z,95608.48
2018-09-03T05:41:14.163Z,95609.67
2018-09-03T05:43:48.838Z,95611.07
2018-09-03T05:46:23.460Z,95614.48
2018-09-03T05:48:58.496Z,95609.72
2018-09-03T05:51:33.243Z,95607.57
2018-09-03T05:54:08.188Z,95613.52
2018-09-03T05:56:42.574Z,95620.15
2018-09-03T05:59:17.428Z,95606.41
2018-09-03T06:01:52.660Z,95605.06
2018-09-03T06:04:27.187Z,95602.21
2018-09-03T06:07:01.725Z,95603.91
2018-09-03T06:09:36.279Z,95601.82
2018-09-03T06:12:11.287Z,95600.63
2018-09-03T06:14:45.676Z,95605.23
2018-09-03T06:17:22.439Z,95603.05
2018-09-03T06:19:56.772Z,95611.33
2018-09-03T06:22:31.283Z,95612.14
2018-09-03T06:25:06.285Z,95619.09
2018-09-03T06:30:18.497Z,95618.95
2018-09-03T06:32:53.086Z,95615.77
2018-09-03T06:35:28.383Z,95613.36
2018-09-03T06:38:03.214Z,95609.13
2018-09-03T06:40:38.784Z,95610.91
2018-09-03T06:43:13.421Z,95606.61
2018-09-03T06:45:49.201Z,95606.02
2018-09-03T06:48:26.630Z,95607.56
2018-09-03T06:51:01.288Z,95611.35
2018-09-03T06:53:36.297Z,95604.63
2018-09-03T06:56:11.043Z,95611.66
2018-09-03T06:58:46.377Z,95618.09
2018-09-03T07:01:20.805Z,95617.78
2018-09-03T07:03:55.983Z,95619.25
2018-09-03T07:06:30.584Z,95617.99
2018-09-03T07:09:08.415Z,95611.82
2018-09-03T07:11:43.036Z,95612.56
2018-09-03T07:14:17.580Z,95611.00
2018-09-03T07:16:52.054Z,95607.02
2018-09-03T07:19:26.645Z,95604.86
2018-09-03T07:22:01.003Z,95602.50
2018-09-03T07:24:37.010Z,95599.42
2018-09-03T07:27:12.550Z,95598.33
2018-09-03T07:29:47.526Z,95588.96
2018-09-03T07:32:22.078Z,95590.73
2018-09-03T07:34:57.071Z,95598.44
2018-09-03T07:37:31.539Z,95605.88
2018-09-03T07:40:07.264Z,95602.05
2018-09-03T07:42:41.861Z,95602.33
2018-09-03T07:45:16.988Z,95600.73
2018-09-03T07:47:51.551Z,95594.45
2018-09-03T07:50:26.712Z,95593.60
2018-09-03T07:53:01.163Z,95589.10
2018-09-03T07:55:36.234Z,95589.18
2018-09-03T07:58:11.639Z,95591.52
2018-09-03T08:00:46.808Z,95586.84
2018-09-03T08:03:21.323Z,95590.19
2018-09-03T08:05:55.768Z,95592.67
2018-09-03T08:08:30.890Z,95582.33
2018-09-03T08:11:05.716Z,95588.19
2018-09-03T08:13:42.214Z,95591.17
2018-09-03T08:16:16.993Z,95588.95
2018-09-03T08:18:51.707Z,95596.65
2018-09-03T08:21:26.811Z,95595.30
2018-09-03T08:24:01.454Z,95591.88
2018-09-03T08:26:36.365Z,95593.52
2018-09-03T08:29:13.036Z,95595.95
2018-09-03T08:31:47.748Z,95592.75
2018-09-03T08:34:22.395Z,95597.73
2018-09-03T08:36:56.957Z,95590.61
2018-09-03T08:39:31.631Z,95594.00
2018-09-03T08:42:06.307Z,95599.12
2018-09-03T08:44:41.157Z,95594.08
2018-09-03T08:47:15.750Z,95595.86
2018-09-03T08:49:50.732Z,95589.73
2018-09-03T08:52:25.680Z,95588.14
2018-09-03T08:55:00.211Z,95583.36
2018-09-03T08:57:34.792Z,95592.40
2018-09-03T09:00:09.555Z,95597.08
2018-09-03T09:02:44.095Z,95593.34
2018-09-03T09:05:19.027Z,95592.76
2018-09-03T09:07:53.614Z,95589.13
2018-09-03T09:10:28.077Z,95590.97
2018-09-03T09:13:03.183Z,95590.03
2018-09-03T09:15:37.739Z,95592.69
2018-09-03T09:18:12.915Z,95588.37
2018-09-03T09:20:47.542Z,95587.81
2018-09-03T09:23:22.032Z,95586.61
2018-09-03T09:25:57.329Z,95586.73
2018-09-03T09:28:32.336Z,95582.44
2018-09-03T09:31:12.992Z,95580.27
2018-09-03T09:34:00.439Z,95574.74
2018-09-03T09:36:36.161Z,95577.23
2018-09-03T09:39:11.586Z,95586.14
2018-09-03T09:41:46.539Z,95584.95
2018-09-03T09:44:21.244Z,95591.17
2018-09-03T09:46:55.532Z,95590.22
2018-09-03T09:49:30.369Z,95591.12
2018-09-03T09:52:05.312Z,95583.59
2018-09-03T09:54:39.596Z,95588.17
2018-09-03T09:57:14.212Z,95594.02
2018-09-03T09:59:50.871Z,95588.33
2018-09-03T10:02:27.790Z,95592.17
2018-09-03T10:05:02.244Z,95590.22
2018-09-03T10:07:37.087Z,95597.55
2018-09-03T10:10:11.439Z,95591.61
2018-09-03T10:12:46.681Z,95589.20
2018-09-03T10:15:21.188Z,95593.88
2018-09-03T10:17:55.619Z,95591.03
2018-09-03T10:20:29.879Z,95600.77
2018-09-03T10:23:05.410Z,95592.67
2018-09-03T10:25:40.198Z,95596.31
2018-09-03T10:28:14.543Z,95596.11
2018-09-03T10:30:52.173Z,95593.42
2018-09-03T10:33:26.744Z,95592.79
2018-09-03T10:36:01.348Z,95588.11
2018-09-03T10:38:36.586Z,95591.59
2018-09-03T10:41:11.144Z,95588.06
2018-09-03T10:43:45.591Z,95583.09
2018-09-03T10:46:20.409Z,95581.93
2018-09-03T10:48:55.140Z,95579.84
2018-09-03T10:51:29.649Z,95579.98
2018-09-03T10:54:04.941Z,95580.98
2018-09-03T10:56:39.747Z,95576.77
2018-09-03T10:59:14.562Z,95580.80
2018-09-03T11:01:49.792Z,95570.70
2018-09-03T11:04:24.446Z,95578.66
2018-09-03T11:06:59.223Z,95572.40
2018-09-03T11:09:33.610Z,95574.81
2018-09-03T11:12:08.188Z,95575.34
2018-09-03T11:14:42.848Z,95576.19
2018-09-03T11:17:17.879Z,95573.41
2018-09-03T11:19:55.189Z,95574.36
2018-09-03T11:22:30.063Z,95568.36
2018-09-03T11:25:05.272Z,95569.59
2018-09-03T11:27:40.572Z,95569.12
2018-09-03T11:30:14.973Z,95568.11
2018-09-03T11:32:54.732Z,95571.42
2018-09-03T11:35:29.336Z,95566.13
2018-09-03T11:38:03.656Z,95566.55
2018-09-03T11:40:38.436Z,95563.63
2018-09-03T11:43:12.715Z,95562.19
2018-09-03T11:45:47.272Z,95558.13
2018-09-03T11:48:21.788Z,95557.81
2018-09-03T11:50:56.535Z,95559.56
2018-09-03T11:53:31.244Z,95559.55
2018-09-03T11:56:05.968Z,95560.27
2018-09-03T11:58:40.424Z,95560.16
2018-09-03T12:01:15.361Z,95563.16
2018-09-03T12:03:49.784Z,95563.80
2018-09-03T12:06:24.845Z,95568.55
2018-09-03T12:08:59.691Z,95570.87
2018-09-03T12:11:34.569Z,95564.16
2018-09-03T12:14:13.215Z,95572.63
2018-09-03T12:16:48.007Z,95571.25
2018-09-03T12:19:22.604Z,95570.36
2018-09-03T12:21:57.099Z,95563.33
2018-09-03T12:24:31.763Z,95566.13
2018-09-03T12:27:06.610Z,95562.81
2018-09-03T12:29:40.928Z,95557.64
2018-09-03T12:32:16.047Z,95556.52
2018-09-03T12:34:50.488Z,95554.23
2018-09-03T12:37:24.920Z,95555.11
2018-09-03T12:39:59.544Z,95550.64
2018-09-03T12:42:34.411Z,95551.87
2018-09-03T12:45:09.320Z,95545.55
2018-09-03T12:47:44.242Z,95542.55
2018-09-03T12:50:18.999Z,95540.72
2018-09-03T12:52:53.517Z,95538.98
2018-09-03T12:55:28.263Z,95537.13
2018-09-03T12:58:02.843Z,95541.86
2018-09-03T13:00:38.676Z,95538.45
2018-09-03T13:03:12.498Z,95543.09
2018-09-03T13:05:47.623Z,95544.50
2018-09-03T13:08:22.159Z,95548.25
2018-09-03T13:10:57.152Z,95542.14
2018-09-03T13:13:32.202Z,95537.97
2018-09-03T13:16:07.171Z,95536.08
2018-09-03T13:18:42.311Z,95537.86
2018-09-03T13:21:17.663Z,95531.05
2018-09-03T13:23:52.520Z,95526.98
2018-09-03T13:26:27.369Z,95527.22
2018-09-03T13:29:01.684Z,95519.44
2018-09-03T13:31:36.927Z,95518.58
2018-09-03T13:34:11.484Z,95511.95
2018-09-03T13:36:46.220Z,95516.52
2018-09-03T13:39:20.743Z,95518.51
2018-09-03T13:41:55.752Z,95519.55
2018-09-03T13:44:30.358Z,95521.67
2018-09-03T13:47:05.023Z,95511.28
2018-09-03T13:49:39.731Z,95501.35
2018-09-03T13:52:14.243Z,95504.01
2018-09-03T13:54:48.850Z,95503.64
2018-09-03T13:57:23.695Z,95504.18
2018-09-03T13:59:58.611Z,95499.03
2018-09-03T14:02:32.947Z,95498.29
2018-09-03T14:05:07.851Z,95489.19
2018-09-03T14:07:42.832Z,95483.63
2018-09-03T14:10:17.564Z,95484.42
2018-09-03T14:12:52.319Z,95482.30
2018-09-03T14:15:27.375Z,95483.36
2018-09-03T14:18:01.822Z,95488.17
2018-09-03T14:20:37.068Z,95489.87
2018-09-03T14:23:12.119Z,95485.53
2018-09-03T14:25:46.388Z,95480.08
2018-09-03T14:28:21.236Z,95481.70
2018-09-03T14:30:56.196Z,95477.50
2018-09-03T14:33:31.135Z,95481.50
2018-09-03T14:36:06.601Z,95481.21
2018-09-03T14:38:41.314Z,95489.19
2018-09-03T14:41:15.799Z,95487.06
2018-09-03T14:43:50.551Z,95490.48
2018-09-03T14:46:25.587Z,95484.62
2018-09-03T14:49:02.659Z,95482.80
2018-09-03T14:51:39.152Z,95487.05
2018-09-03T14:54:13.552Z,95483.09
2018-09-03T14:56:47.935Z,95484.91
2018-09-03T14:59:22.304Z,95489.86
2018-09-03T15:02:03.251Z,95493.91
2018-09-03T15:04:38.432Z,95486.95
2018-09-03T15:07:13.063Z,95481.27
2018-09-03T15:09:50.515Z,95483.55
2018-09-03T15:12:25.379Z,95489.27
2018-09-03T15:15:00.215Z,95490.73
2018-09-03T15:17:35.556Z,95493.80
2018-09-03T15:20:10.303Z,95485.87
2018-09-03T15:22:44.827Z,95481.52
2018-09-03T15:25:19.423Z,95484.13
2018-09-03T15:27:53.867Z,95485.55
2018-09-03T15:30:29.061Z,95483.16
2018-09-03T15:33:04.128Z,95486.59
2018-09-03T15:35:38.608Z,95487.23
2018-09-03T15:38:13.427Z,95498.28
2018-09-03T15:40:48.136Z,95495.78
2018-09-03T15:43:23.263Z,95497.23
2018-09-03T15:45:57.884Z,95493.80
2018-09-03T15:48:32.381Z,95505.80
2018-09-03T15:51:07.676Z,95498.02
2018-09-03T15:53:42.115Z,95495.25
2018-09-03T15:56:17.164Z,95488.63
2018-09-03T15:58:51.685Z,95488.81
2018-09-03T16:01:26.496Z,95488.73
2018-09-03T16:04:01.696Z,95486.81
2018-09-03T16:06:36.903Z,95486.36
2018-09-03T16:09:12.046Z,95483.53
2018-09-03T16:11:46.691Z,95490.30
2018-09-03T16:14:21.498Z,95494.59
2018-09-03T16:16:55.779Z,95494.79
2018-09-03T16:19:30.404Z,95491.38
2018-09-03T16:22:04.745Z,95488.95
2018-09-03T16:24:39.200Z,95489.34
2018-09-03T16:27:13.684Z,95496.63
2018-09-03T16:29:48.507Z,95498.22
2018-09-03T16:32:23.375Z,95500.22
2018-09-03T16:34:57.948Z,95496.73
2018-09-03T16:37:32.213Z,95502.81
2018-09-03T16:40:08.382Z,95498.28
2018-09-03T16:42:42.842Z,95500.89
2018-09-03T16:45:17.860Z,95493.41
2018-09-03T16:47:52.683Z,95494.67
2018-09-03T16:50:27.395Z,95493.56
2018-09-03T16:53:02.275Z,95491.27
2018-09-03T16:55:37.208Z,95484.84
2018-09-03T16:58:12.256Z,95495.22
2018-09-03T17:00:46.900Z,95501.81
2018-09-03T17:03:21.726Z,95507.20
2018-09-03T17:05:56.156Z,95498.59
2018-09-03T17:08:31.140Z,95501.66
2018-09-03T17:11:06.414Z,95503.38
2018-09-03T17:13:41.276Z,95502.48
2018-09-03T17:16:15.748Z,95506.13
2018-09-03T17:18:50.080Z,95502.57
2018-09-03T17:21:25.157Z,95508.77
2018-09-03T17:24:00.333Z,95507.27
2018-09-03T17:26:35.350Z,95511.14
2018-09-03T17:29:10.144Z,95510.22
2018-09-03T17:31:44.564Z,95511.61
2018-09-03T17:34:19.015Z,95500.30
2018-09-03T17:36:54.194Z,95505.55
2018-09-03T17:39:28.784Z,95505.98
2018-09-03T17:42:03.771Z,95503.43
2018-09-03T17:44:38.211Z,95498.40
2018-09-03T17:47:12.532Z,95500.92
2018-09-03T17:49:47.396Z,95503.23
2018-09-03T17:52:22.115Z,95510.78
2018-09-03T17:54:56.947Z,95514.97
2018-09-03T17:57:31.731Z,95520.67
2018-09-03T18:00:06.102Z,95519.94
2018-09-03T18:02:40.999Z,95527.84
2018-09-03T18:05:15.422Z,95535.23
2018-09-03T18:07:49.691Z,95534.44
2018-09-03T18:10:23.985Z,95532.05
2018-09-03T18:12:58.287Z,95528.56
2018-09-03T18:15:32.767Z,95534.86
2018-09-03T18:18:07.123Z,95538.25
2018-09-03T18:20:42.184Z,95540.83
2018-09-03T18:23:16.827Z,95540.88
2018-09-03T18:25:51.731Z,95545.58
2018-09-03T18:28:26.192Z,95546.44
2018-09-03T18:31:01.098Z,95548.78
2018-09-03T18:33:35.824Z,95549.22
2018-09-03T18:36:10.535Z,95547.62
2018-09-03T18:38:45.082Z,95544.94
2018-09-03T18:41:19.553Z,95546.77
2018-09-03T18:43:54.672Z,95551.47
2018-09-03T18:46:31.423Z,95551.94
2018-09-03T18:49:06.007Z,95556.50
2018-09-03T18:51:40.463Z,95559.22
2018-09-03T18:54:15.102Z,95562.37
2018-09-03T18:56:49.509Z,95562.80
2018-09-03T18:59:23.867Z,95560.81
2018-09-03T19:01:59.931Z,95563.45
2018-09-03T19:04:34.435Z,95563.09
2018-09-03T19:07:09.560Z,95562.88
2018-09-03T19:09:44.038Z,95561.25
2018-09-03T19:12:19.223Z,95560.69
2018-09-03T19:14:53.838Z,95564.91
2018-09-03T19:17:28.645Z,95562.70
2018-09-03T19:20:05.596Z,95565.95
2018-09-03T19:22:41.483Z,95560.91
2018-09-03T19:25:16.102Z,95561.80
2018-09-03T19:27:51.106Z,95560.86
2018-09-03T19:30:25.679Z,95561.56
2018-09-03T19:33:00.031Z,95565.80
2018-09-03T19:35:34.838Z,95564.12
2018-09-03T19:38:09.871Z,95568.34
2018-09-03T19:40:44.688Z,95565.38
2018-09-03T19:43:18.988Z,95563.27
2018-09-03T19:45:53.311Z,95564.30
2018-09-03T19:48:28.480Z,95566.88
2018-09-03T19:51:03.243Z,95565.33
2018-09-03T19:53:40.925Z,95565.84
2018-09-03T19:56:17.386Z,95567.39
2018-09-03T19:58:56.673Z,95563.67
2018-09-03T20:01:34.241Z,95562.31
2018-09-03T20:04:08.600Z,95558.59
2018-09-03T20:06:43.383Z,95566.35
2018-09-03T20:09:17.800Z,95572.59
2018-09-03T20:11:52.518Z,95566.76
2018-09-03T20:14:26.991Z,95569.77
2018-09-03T20:17:01.981Z,95566.80
2018-09-03T20:19:36.680Z,95559.84
2018-09-03T20:22:13.124Z,95565.30
2018-09-03T20:24:47.514Z,95567.37
2018-09-03T20:27:21.939Z,95562.62
2018-09-03T20:29:56.621Z,95561.08
2018-09-03T20:32:31.439Z,95556.33
2018-09-03T20:35:06.072Z,95559.66
2018-09-03T20:37:40.615Z,95553.55
2018-09-03T20:40:15.360Z,95553.41
2018-09-03T20:42:50.122Z,95548.55
2018-09-03T20:45:25.336Z,95554.73
2018-09-03T20:47:59.907Z,95547.48
2018-09-03T20:50:34.247Z,95545.89
2018-09-03T20:53:08.911Z,95546.83
2018-09-03T20:55:43.622Z,95548.52
2018-09-03T20:58:18.252Z,95545.70
2018-09-03T21:00:52.744Z,95551.34
2018-09-03T21:03:27.384Z,95544.91
2018-09-03T21:06:01.931Z,95545.00
2018-09-03T21:08:36.283Z,95541.28
2018-09-03T21:11:10.750Z,95544.89
2018-09-03T21:13:45.435Z,95544.15
2018-09-03T21:16:20.103Z,95544.25
2018-09-03T21:18:54.610Z,95539.75
2018-09-03T21:21:29.111Z,95538.56
2018-09-03T21:24:03.949Z,95537.80
2018-09-03T21:26:38.424Z,95535.27
2018-09-03T21:29:12.764Z,95534.77
2018-09-03T21:31:47.094Z,95535.13
2018-09-03T21:34:21.451Z,95540.75
2018-09-03T21:36:56.244Z,95540.09
2018-09-03T21:39:31.419Z,95534.73
2018-09-03T21:42:06.492Z,95535.01
2018-09-03T21:44:41.571Z,95541.30
2018-09-03T21:47:16.500Z,95543.02
2018-09-03T21:49:51.671Z,95539.64
2018-09-03T21:52:26.068Z,95538.90
2018-09-03T21:55:00.787Z,95537.02
2018-09-03T21:57:35.404Z,95533.75
2018-09-03T22:00:10.696Z,95533.18
2018-09-03T22:02:45.419Z,95533.13
2018-09-03T22:05:19.835Z,95539.19
2018-09-03T22:07:54.664Z,95538.10
2018-09-03T22:10:29.460Z,95536.78
2018-09-03T22:13:03.848Z,95535.70
2018-09-03T22:15:39.787Z,95532.78
2018-09-03T22:18:14.272Z,95533.44
2018-09-03T22:20:48.624Z,95533.09
2018-09-03T22:23:23.300Z,95531.67
2018-09-03T22:25:57.988Z,95532.19
2018-09-03T22:28:32.435Z,95530.30
2018-09-03T22:31:07.252Z,95526.55
2018-09-03T22:33:41.747Z,95519.18
2018-09-03T22:36:16.133Z,95524.89
2018-09-03T22:38:51.016Z,95520.20
2018-09-03T22:41:26.457Z,95523.58
2018-09-03T22:44:01.315Z,95521.86
2018-09-03T22:46:38.361Z,95522.95
2018-09-03T22:49:13.392Z,95519.75
2018-09-03T22:51:47.811Z,95528.66
2018-09-03T22:54:22.541Z,95521.43
2018-09-03T22:56:57.040Z,95517.20
2018-09-03T22:59:31.626Z,95516.40
2018-09-03T23:02:06.699Z,95515.14
2018-09-03T23:04:41.436Z,95514.28
2018-09-03T23:07:16.127Z,95516.34
2018-09-03T23:09:50.795Z,95518.17
2018-09-03T23:12:25.191Z,95513.34
2018-09-03T23:14:59.804Z,95516.17
2018-09-03T23:17:35.387Z,95515.09
2018-09-03T23:20:10.119Z,95514.57
2018-09-03T23:22:45.047Z,95510.11
2018-09-03T23:25:19.907Z,95511.29
2018-09-03T23:27:54.685Z,95513.97
2018-09-03T23:30:29.031Z,95515.58
2018-09-03T23:33:03.938Z,95512.44
2018-09-03T23:35:38.415Z,95511.17
2018-09-03T23:38:13.127Z,95512.44
2018-09-03T23:40:47.695Z,95513.46
2018-09-03T23:43:22.560Z,95512.78
2018-09-03T23:45:57.416Z,95508.31
2018-09-03T23:48:31.762Z,95504.55
2018-09-03T23:51:06.493Z,95507.46
2018-09-03T23:53:40.948Z,95504.95
2018-09-03T23:56:15.692Z,95501.20
2018-09-03T23:58:51.008Z,95505.86
